Time;durP1;ratioP1;P1;durP2;ratioP2;P2;SDS_P1;SDS_P2;PMS_P1;PMS_P2;Temp;Humidity;BMP_temperature;BMP_pressure;BME280_temperature;BME280_humidity;BME280_pressure;Samples;Min_cycle;Max_cycle;Signal;HPM_P1;HPM_P2
2022/12/04 00:02:02;;;;;;;12.70;9.63;;;;;;;;;;5052465;28;20199;-84
2022/12/04 00:04:29;;;;;;;12.87;9.80;;;;;;;;;;5052125;28;20206;-84
2022/12/04 00:06:56;;;;;;;13.83;10.57;;;;;;;;;;5051426;28;20234;-84
2022/12/04 00:09:24;;;;;;;11.83;9.60;;;;;;;;;;5052007;28;20569;-84
2022/12/04 00:11:51;;;;;;;11.00;9.60;;;;;;;;;;5051517;28;20245;-84
2022/12/04 00:14:19;;;;;;;14.00;10.10;;;;;;;;;;5051841;28;20209;-84
2022/12/04 00:16:46;;;;;;;13.67;10.40;;;;;;;;;;5051621;28;20241;-84
2022/12/04 00:19:13;;;;;;;12.87;10.20;;;;;;;;;;5051997;28;20217;-84
2022/12/04 00:21:40;;;;;;;12.50;10.20;;;;;;;;;;5051536;28;20729;-84
2022/12/04 00:24:07;;;;;;;13.17;9.87;;;;;;;;;;5050856;28;20740;-83
2022/12/04 00:26:35;;;;;;;12.27;10.47;;;;;;;;;;5051411;28;20241;-83
2022/12/04 00:29:03;;;;;;;13.90;10.90;;;;;;;;;;5052152;28;20213;-84
2022/12/04 00:31:30;;;;;;;14.33;10.10;;;;;;;;;;5051490;28;20597;-83
2022/12/04 00:33:58;;;;;;;13.37;10.17;;;;;;;;;;5050352;28;20236;-84
2022/12/04 00:36:26;;;;;;;12.93;10.60;;;;;;;;;;5045574;28;20229;-84
2022/12/04 00:38:53;;;;;;;14.70;11.17;;;;;;;;;;5066204;28;20221;-83
2022/12/04 00:41:21;;;;;;;15.77;10.27;;;;;;;;;;5051581;28;20239;-83
2022/12/04 00:43:49;;;;;;;12.97;10.27;;;;;;;;;;5051209;28;20213;-84
2022/12/04 00:46:16;;;;;;;12.87;10.57;;;;;;;;;;5058837;28;20225;-83
2022/12/04 00:48:44;;;;;;;13.07;10.20;;;;;;;;;;5060283;28;20202;-83
2022/12/04 00:51:12;;;;;;;12.77;10.27;;;;;;;;;;5051175;28;20608;-83
2022/12/04 00:53:40;;;;;;;16.83;11.37;;;;;;;;;;5051582;28;20222;-83
2022/12/04 00:56:07;;;;;;;15.43;11.23;;;;;;;;;;5050445;28;20618;-84
2022/12/04 00:58:35;;;;;;;13.47;10.73;;;;;;;;;;5051349;28;20206;-84
2022/12/04 01:01:04;;;;;;;14.50;10.23;;;;;;;;;;5051157;28;20252;-84
2022/12/04 01:03:32;;;;;;;13.60;10.20;;;;;;;;;;5055308;28;20198;-83
2022/12/04 01:05:59;;;;;;;12.30;9.50;;;;;;;;;;5054853;28;20242;-83
2022/12/04 01:08:26;;;;;;;12.90;10.17;;;;;;;;;;5055113;28;20206;-84
2022/12/04 01:10:53;;;;;;;13.93;9.80;;;;;;;;;;5053842;28;20226;-83
2022/12/04 01:13:20;;;;;;;12.33;9.60;;;;;;;;;;5056498;28;20701;-83
2022/12/04 01:15:48;;;;;;;14.23;10.10;;;;;;;;;;5052690;28;20238;-83
2022/12/04 01:18:16;;;;;;;11.13;8.90;;;;;;;;;;5052789;28;20264;-83
2022/12/04 01:20:47;;;;;;;10.97;9.13;;;;;;;;;;5054688;28;20241;-83
2022/12/04 01:23:14;;;;;;;10.67;8.80;;;;;;;;;;5055286;28;20220;-83
2022/12/04 01:25:41;;;;;;;13.70;9.87;;;;;;;;;;5054656;28;20240;-83
2022/12/04 01:28:09;;;;;;;12.43;9.70;;;;;;;;;;5054427;28;20567;-83
2022/12/04 01:30:36;;;;;;;14.27;10.50;;;;;;;;;;5070982;28;20241;-83
2022/12/04 01:33:03;;;;;;;13.67;10.67;;;;;;;;;;5073998;28;20583;-83
2022/12/04 01:35:31;;;;;;;12.47;9.83;;;;;;;;;;5074337;28;20245;-83
2022/12/04 01:37:58;;;;;;;13.13;10.53;;;;;;;;;;5058810;28;20206;-83
2022/12/04 01:40:25;;;;;;;13.17;10.10;;;;;;;;;;5061972;28;20225;-83
2022/12/04 01:42:52;;;;;;;14.57;10.90;;;;;;;;;;5073519;28;20570;-83
2022/12/04 01:45:34;;;;;;;14.13;10.47;;;;;;;;;;5074034;28;20309;-83
2022/12/04 01:48:07;;;;;;;14.40;10.77;;;;;;;;;;5074277;28;20208;-83
2022/12/04 01:50:35;;;;;;;14.17;10.63;;;;;;;;;;5074507;28;20240;-84
2022/12/04 01:53:02;;;;;;;12.33;9.90;;;;;;;;;;5074777;28;20236;-83
2022/12/04 01:55:30;;;;;;;14.27;10.13;;;;;;;;;;5049721;28;20232;-83
2022/12/04 01:57:57;;;;;;;13.57;9.83;;;;;;;;;;5043840;28;20213;-83
2022/12/04 02:00:24;;;;;;;16.07;11.03;;;;;;;;;;5057792;28;20234;-83
2022/12/04 02:02:51;;;;;;;12.67;9.93;;;;;;;;;;5056568;28;20209;-83
2022/12/04 02:05:20;;;;;;;17.47;10.87;;;;;;;;;;5053038;28;20236;-83
2022/12/04 02:07:49;;;;;;;13.67;10.50;;;;;;;;;;5054618;28;20194;-83
2022/12/04 02:10:23;;;;;;;12.73;9.63;;;;;;;;;;5053500;28;20234;-84
2022/12/04 02:12:56;;;;;;;12.67;9.43;;;;;;;;;;5053608;28;20210;-83
2022/12/04 02:15:29;;;;;;;14.60;10.00;;;;;;;;;;5053339;28;20241;-83
2022/12/04 02:18:00;;;;;;;12.13;10.10;;;;;;;;;;5053384;28;20202;-84
2022/12/04 02:20:31;;;;;;;17.03;11.77;;;;;;;;;;5053253;28;20705;-83
2022/12/04 02:23:13;;;;;;;12.53;10.13;;;;;;;;;;5053574;28;20563;-84
2022/12/04 02:25:44;;;;;;;14.83;10.53;;;;;;;;;;5051686;28;20316;-84
2022/12/04 02:28:16;;;;;;;13.97;9.87;;;;;;;;;;5057301;28;20206;-83
2022/12/04 02:30:45;;;;;;;13.33;9.73;;;;;;;;;;5053173;28;20233;-83
2022/12/04 02:33:17;;;;;;;13.87;10.53;;;;;;;;;;5053619;28;20225;-84
2022/12/04 02:35:46;;;;;;;16.10;10.30;;;;;;;;;;5053017;28;20240;-84
2022/12/04 02:38:16;;;;;;;14.50;10.93;;;;;;;;;;5053210;28;20209;-84
2022/12/04 02:40:46;;;;;;;14.20;11.07;;;;;;;;;;5052705;28;20713;-83
2022/12/04 02:43:16;;;;;;;14.67;10.60;;;;;;;;;;5053162;28;20204;-83
2022/12/04 02:45:45;;;;;;;15.77;10.20;;;;;;;;;;5032725;28;20239;-83
2022/12/04 02:48:16;;;;;;;15.77;11.03;;;;;;;;;;5033198;28;20209;-83
2022/12/04 02:50:43;;;;;;;13.80;10.80;;;;;;;;;;5032934;28;20249;-83
2022/12/04 02:53:12;;;;;;;13.17;10.37;;;;;;;;;;5034105;28;20597;-84
2022/12/04 02:55:42;;;;;;;14.03;10.03;;;;;;;;;;5049867;28;20240;-84
2022/12/04 02:58:11;;;;;;;13.47;10.13;;;;;;;;;;5052484;28;20206;-83
2022/12/04 03:00:40;;;;;;;14.13;10.17;;;;;;;;;;5032588;28;20242;-83
2022/12/04 03:03:10;;;;;;;12.87;9.60;;;;;;;;;;5033195;28;20203;-83
2022/12/04 03:05:40;;;;;;;13.07;9.93;;;;;;;;;;5050312;28;20249;-83
2022/12/04 03:08:09;;;;;;;12.57;8.70;;;;;;;;;;5054980;28;20595;-83
2022/12/04 03:10:39;;;;;;;13.60;9.30;;;;;;;;;;5055371;28;20234;-83
2022/12/04 03:13:08;;;;;;;11.40;9.10;;;;;;;;;;5052478;28;20232;-83
2022/12/04 03:15:38;;;;;;;14.60;10.60;;;;;;;;;;5052042;28;20320;-83
2022/12/04 03:18:07;;;;;;;14.00;9.80;;;;;;;;;;5052502;28;20224;-83
2022/12/04 03:20:36;;;;;;;13.07;9.63;;;;;;;;;;5051605;28;20238;-83
2022/12/04 03:23:05;;;;;;;15.23;10.43;;;;;;;;;;5052471;28;20681;-83
2022/12/04 03:25:33;;;;;;;17.20;10.83;;;;;;;;;;5051292;28;20237;-83
2022/12/04 03:28:02;;;;;;;14.03;10.40;;;;;;;;;;5052303;28;20217;-84
2022/12/04 03:30:32;;;;;;;14.47;10.40;;;;;;;;;;5051547;28;20721;-83
2022/12/04 03:33:03;;;;;;;14.50;10.33;;;;;;;;;;5052597;28;20245;-83
2022/12/04 03:35:34;;;;;;;17.97;10.63;;;;;;;;;;5051935;28;20238;-83
2022/12/04 03:38:02;;;;;;;15.53;10.87;;;;;;;;;;5052270;28;20575;-83
2022/12/04 03:40:35;;;;;;;13.63;10.20;;;;;;;;;;5051545;28;20230;-83
2022/12/04 03:43:04;;;;;;;15.33;10.70;;;;;;;;;;5032467;28;20191;-83
2022/12/04 03:45:36;;;;;;;13.97;10.60;;;;;;;;;;5031618;28;20619;-83
2022/12/04 03:48:06;;;;;;;16.50;10.83;;;;;;;;;;5040109;28;20194;-83
2022/12/04 03:50:37;;;;;;;16.00;10.60;;;;;;;;;;5042005;28;20256;-83
2022/12/04 03:53:07;;;;;;;13.00;10.00;;;;;;;;;;5037143;28;20705;-83
2022/12/04 03:55:36;;;;;;;15.83;10.53;;;;;;;;;;5051580;28;20257;-83
2022/12/04 03:58:05;;;;;;;15.10;10.50;;;;;;;;;;5051982;28;20202;-83
2022/12/04 04:00:33;;;;;;;14.07;9.87;;;;;;;;;;5051472;28;20252;-83
2022/12/04 04:03:04;;;;;;;14.20;10.13;;;;;;;;;;5052149;28;20209;-83
2022/12/04 04:05:31;;;;;;;13.77;9.87;;;;;;;;;;5051496;28;20299;-83
2022/12/04 04:08:24;;;;;;;12.80;9.60;;;;;;;;;;5051910;28;20202;-83
2022/12/04 04:10:49;;;;;;;13.20;9.43;;;;;;;;;;5050900;28;20245;-83
2022/12/04 04:24:27;;;;;;;13.73;9.00;;;;;;;;;;5051663;28;20186;-83
2022/12/04 04:26:55;;;;;;;12.80;8.90;;;;;;;;;;5050751;28;20229;-83
2022/12/04 04:29:22;;;;;;;12.17;8.87;;;;;;;;;;5051628;28;20220;-83
2022/12/04 04:31:53;;;;;;;14.50;8.90;;;;;;;;;;5051140;28;20717;-83
2022/12/04 04:34:23;;;;;;;15.10;10.07;;;;;;;;;;5051530;28;20239;-83
2022/12/04 04:36:54;;;;;;;15.23;9.23;;;;;;;;;;5053696;28;20316;-83
2022/12/04 04:39:25;;;;;;;13.57;8.83;;;;;;;;;;5055470;28;20198;-82
2022/12/04 04:41:54;;;;;;;13.27;9.13;;;;;;;;;;5055177;28;20702;-83
2022/12/04 04:44:26;;;;;;;13.40;8.67;;;;;;;;;;5055346;28;20208;-83
2022/12/04 04:46:55;;;;;;;12.13;8.27;;;;;;;;;;5055071;28;20237;-83
2022/12/04 04:49:24;;;;;;;14.20;8.60;;;;;;;;;;5055240;28;20682;-83
2022/12/04 04:51:51;;;;;;;13.30;9.67;;;;;;;;;;5055182;28;20230;-83
2022/12/04 04:54:19;;;;;;;14.17;8.63;;;;;;;;;;5055259;28;20227;-83
2022/12/04 04:56:48;;;;;;;13.13;9.13;;;;;;;;;;5054874;28;20698;-83
2022/12/04 04:59:15;;;;;;;11.33;9.03;;;;;;;;;;5055119;28;20210;-83
2022/12/04 05:01:43;;;;;;;13.23;9.73;;;;;;;;;;5054795;28;20230;-82
2022/12/04 05:04:11;;;;;;;11.10;8.17;;;;;;;;;;5054835;28;20639;-83
2022/12/04 05:06:38;;;;;;;16.17;9.37;;;;;;;;;;5071792;28;20233;-83
2022/12/04 05:09:05;;;;;;;11.57;8.70;;;;;;;;;;5069896;28;20217;-83
2022/12/04 05:11:32;;;;;;;12.80;9.13;;;;;;;;;;5054549;28;20740;-83
2022/12/04 05:14:00;;;;;;;16.47;9.57;;;;;;;;;;5054884;28;20234;-83
2022/12/04 05:16:27;;;;;;;11.17;8.10;;;;;;;;;;5054360;28;20240;-83
2022/12/04 05:21:40;;;;;;;11.40;8.00;;;;;;;;;;5036354;28;20253;-84
2022/12/04 05:24:07;;;;;;;11.93;8.77;;;;;;;;;;5054709;28;20211;-83
2022/12/04 05:26:34;;;;;;;10.90;8.70;;;;;;;;;;5053810;28;20244;-83
2022/12/04 05:29:03;;;;;;;11.47;8.37;;;;;;;;;;5054614;28;20206;-83
2022/12/04 05:31:30;;;;;;;11.30;8.47;;;;;;;;;;5054254;28;20237;-83
2022/12/04 05:33:57;;;;;;;13.00;7.60;;;;;;;;;;5054561;28;20237;-83
2022/12/04 05:36:24;;;;;;;8.93;7.67;;;;;;;;;;5053546;28;20234;-83
2022/12/04 05:38:51;;;;;;;12.77;8.03;;;;;;;;;;5062020;28;20205;-84
2022/12/04 05:41:18;;;;;;;9.57;7.67;;;;;;;;;;5053620;28;20230;-84
2022/12/04 05:43:45;;;;;;;11.37;8.47;;;;;;;;;;5053952;28;20203;-83
2022/12/04 05:46:14;;;;;;;11.43;7.77;;;;;;;;;;5053614;28;20233;-83
2022/12/04 05:48:41;;;;;;;11.30;8.53;;;;;;;;;;5053537;28;20208;-83
2022/12/04 05:51:09;;;;;;;10.90;8.13;;;;;;;;;;5053966;28;20283;-83
2022/12/04 05:53:36;;;;;;;11.87;7.57;;;;;;;;;;5054079;28;20725;-83
2022/12/04 05:56:04;;;;;;;10.53;7.83;;;;;;;;;;5053525;28;20361;-83
2022/12/04 05:58:31;;;;;;;11.20;7.63;;;;;;;;;;5054406;28;20700;-83
2022/12/04 06:00:58;;;;;;;12.27;8.53;;;;;;;;;;5053777;28;20237;-83
2022/12/04 06:03:27;;;;;;;10.87;7.60;;;;;;;;;;5054536;28;20210;-83
2022/12/04 06:05:54;;;;;;;14.40;9.07;;;;;;;;;;5046670;28;20882;-83
2022/12/04 06:08:21;;;;;;;11.50;8.37;;;;;;;;;;5053859;28;20653;-83
2022/12/04 06:10:48;;;;;;;12.33;8.00;;;;;;;;;;5054097;28;20620;-84
2022/12/04 06:13:15;;;;;;;11.90;8.40;;;;;;;;;;5053665;28;20693;-83
2022/12/04 06:15:42;;;;;;;11.00;8.87;;;;;;;;;;5053468;28;20252;-83
2022/12/04 06:18:09;;;;;;;13.37;8.77;;;;;;;;;;5053397;28;20202;-83
2022/12/04 06:20:37;;;;;;;11.33;7.97;;;;;;;;;;5052898;28;20272;-83
2022/12/04 06:23:05;;;;;;;12.93;8.57;;;;;;;;;;5053556;28;20204;-83
2022/12/04 06:25:32;;;;;;;10.40;8.03;;;;;;;;;;5052903;28;20241;-83
2022/12/04 06:28:01;;;;;;;11.63;7.50;;;;;;;;;;5052550;28;20206;-83
2022/12/04 06:30:29;;;;;;;12.73;8.33;;;;;;;;;;5039955;28;20238;-83
2022/12/04 06:32:56;;;;;;;12.97;8.43;;;;;;;;;;5045101;28;20238;-82
2022/12/04 06:35:23;;;;;;;10.47;7.93;;;;;;;;;;5060963;28;20229;-82
2022/12/04 06:37:51;;;;;;;12.33;8.73;;;;;;;;;;5071513;28;20205;-82
2022/12/04 06:40:18;;;;;;;15.03;8.63;;;;;;;;;;5072788;28;20233;-83
2022/12/04 06:42:46;;;;;;;10.83;7.60;;;;;;;;;;5073054;28;20656;-79
2022/12/04 06:45:13;;;;;;;13.63;7.37;;;;;;;;;;5072439;28;20259;-79
2022/12/04 06:47:41;;;;;;;11.90;8.27;;;;;;;;;;5053404;28;20292;-80
2022/12/04 06:50:08;;;;;;;10.77;7.70;;;;;;;;;;5050870;28;20725;-79
2022/12/04 06:52:36;;;;;;;11.47;8.20;;;;;;;;;;5033064;28;20202;-79
2022/12/04 06:55:05;;;;;;;11.67;8.20;;;;;;;;;;5032607;28;20234;-81
2022/12/04 06:57:32;;;;;;;15.30;8.77;;;;;;;;;;5033028;28;20583;-79
2022/12/04 06:59:59;;;;;;;13.40;8.60;;;;;;;;;;5032411;28;20235;-79
2022/12/04 07:02:26;;;;;;;12.00;8.30;;;;;;;;;;5046342;28;20674;-77
2022/12/04 07:04:55;;;;;;;12.80;8.80;;;;;;;;;;5052422;28;20245;-77
2022/12/04 07:07:23;;;;;;;12.00;8.63;;;;;;;;;;5051962;28;20202;-77
2022/12/04 07:09:50;;;;;;;15.17;9.30;;;;;;;;;;5051636;28;20214;-78
2022/12/04 07:12:18;;;;;;;17.07;7.57;;;;;;;;;;5052206;28;20674;-77
2022/12/04 07:14:45;;;;;;;13.97;9.00;;;;;;;;;;5051818;28;20226;-79
2022/12/04 07:17:12;;;;;;;13.13;8.83;;;;;;;;;;5052517;28;20206;-78
2022/12/04 07:19:39;;;;;;;16.43;9.27;;;;;;;;;;5051815;28;20210;-78
2022/12/04 07:22:07;;;;;;;17.13;9.83;;;;;;;;;;5065682;28;20208;-78
2022/12/04 07:24:36;;;;;;;16.43;9.23;;;;;;;;;;5058448;28;20653;-79
2022/12/04 07:27:03;;;;;;;14.57;9.87;;;;;;;;;;5038540;28;20202;-78
2022/12/04 07:29:32;;;;;;;14.10;9.23;;;;;;;;;;5051088;28;20283;-78
2022/12/04 07:31:59;;;;;;;14.23;9.40;;;;;;;;;;5046317;28;20598;-78
2022/12/04 07:34:26;;;;;;;17.43;10.20;;;;;;;;;;5055640;28;20266;-78
2022/12/04 07:36:53;;;;;;;17.73;10.23;;;;;;;;;;5058951;28;20230;-78
2022/12/04 07:39:20;;;;;;;16.90;10.40;;;;;;;;;;5051847;28;20735;-78
2022/12/04 07:41:47;;;;;;;14.00;9.90;;;;;;;;;;5051455;28;20233;-78
2022/12/04 07:44:14;;;;;;;16.27;10.10;;;;;;;;;;5051529;28;20561;-78
2022/12/04 07:46:43;;;;;;;18.47;11.03;;;;;;;;;;5042729;28;20253;-78
2022/12/04 07:49:12;;;;;;;17.13;10.57;;;;;;;;;;5031972;28;20218;-81
2022/12/04 07:51:39;;;;;;;16.40;10.17;;;;;;;;;;5042829;28;20284;-78
2022/12/04 07:54:07;;;;;;;18.97;10.87;;;;;;;;;;5055937;28;20216;-78
2022/12/04 07:56:34;;;;;;;19.23;11.07;;;;;;;;;;5061881;28;20245;-78
2022/12/04 07:59:01;;;;;;;19.60;11.30;;;;;;;;;;5053013;28;20206;-78
2022/12/04 08:01:29;;;;;;;19.80;11.10;;;;;;;;;;5067012;28;20232;-78
2022/12/04 08:03:58;;;;;;;15.40;10.20;;;;;;;;;;5071776;28;20232;-78
2022/12/04 08:06:26;;;;;;;17.10;11.00;;;;;;;;;;5071083;28;20237;-78
2022/12/04 08:08:53;;;;;;;21.00;10.70;;;;;;;;;;5071581;28;20362;-78
2022/12/04 08:11:21;;;;;;;17.97;10.80;;;;;;;;;;5070683;28;20240;-80
2022/12/04 08:13:48;;;;;;;17.80;10.47;;;;;;;;;;5071980;28;20266;-79
2022/12/04 08:16:16;;;;;;;19.33;10.73;;;;;;;;;;5070964;28;20237;-82
2022/12/04 08:18:47;;;;;;;16.40;10.10;;;;;;;;;;5031759;28;20560;-80
2022/12/04 08:21:16;;;;;;;19.60;10.77;;;;;;;;;;5038187;28;20720;-81
2022/12/04 08:23:44;;;;;;;22.43;11.47;;;;;;;;;;5049202;28;20203;-81
2022/12/04 08:26:12;;;;;;;17.90;10.23;;;;;;;;;;5069578;28;20241;-81
2022/12/04 08:28:40;;;;;;;17.90;11.23;;;;;;;;;;5061902;28;20213;-80
2022/12/04 08:31:08;;;;;;;20.10;10.90;;;;;;;;;;5050562;28;20230;-81
2022/12/04 08:33:35;;;;;;;17.80;10.90;;;;;;;;;;5051733;28;20210;-81
2022/12/04 08:36:02;;;;;;;18.00;10.73;;;;;;;;;;5050882;28;20240;-81
2022/12/04 08:38:31;;;;;;;20.03;11.23;;;;;;;;;;5067617;28;20201;-81
2022/12/04 08:41:00;;;;;;;17.67;11.00;;;;;;;;;;5070927;28;20323;-81
2022/12/04 08:43:27;;;;;;;19.33;11.63;;;;;;;;;;5071833;28;20238;-80
2022/12/04 08:45:57;;;;;;;20.70;11.73;;;;;;;;;;5070855;28;20636;-81
2022/12/04 08:48:24;;;;;;;23.70;12.00;;;;;;;;;;5071253;28;20205;-81
2022/12/04 08:50:51;;;;;;;20.97;11.93;;;;;;;;;;5071023;28;20237;-81
2022/12/04 08:53:19;;;;;;;19.00;11.80;;;;;;;;;;5071140;28;20210;-81
2022/12/04 08:55:47;;;;;;;19.73;11.53;;;;;;;;;;5070761;28;20724;-81
2022/12/04 08:58:14;;;;;;;18.90;10.40;;;;;;;;;;5071424;28;20209;-81
2022/12/04 09:00:42;;;;;;;16.50;10.67;;;;;;;;;;5070879;28;20235;-81
2022/12/04 09:03:10;;;;;;;19.23;10.97;;;;;;;;;;5071442;28;20205;-81
2022/12/04 09:05:37;;;;;;;16.73;10.60;;;;;;;;;;5060919;28;20585;-80
2022/12/04 09:08:04;;;;;;;18.57;10.43;;;;;;;;;;5065768;28;20315;-80
2022/12/04 09:10:31;;;;;;;18.97;11.37;;;;;;;;;;5070818;28;20240;-81
2022/12/04 09:12:59;;;;;;;17.33;10.93;;;;;;;;;;5071326;28;20205;-81
2022/12/04 09:15:26;;;;;;;17.40;11.10;;;;;;;;;;5070563;28;20245;-80
2022/12/04 09:17:53;;;;;;;16.37;10.70;;;;;;;;;;5070806;28;20217;-81
2022/12/04 09:20:20;;;;;;;17.87;12.23;;;;;;;;;;5070580;28;20235;-80
2022/12/04 09:22:47;;;;;;;15.63;10.40;;;;;;;;;;5072364;28;20212;-80
2022/12/04 09:25:15;;;;;;;17.30;11.30;;;;;;;;;;5074268;28;20231;-81
2022/12/04 09:27:42;;;;;;;17.90;10.90;;;;;;;;;;5074666;28;20209;-80
2022/12/04 09:30:12;;;;;;;19.33;11.37;;;;;;;;;;5074181;28;20233;-81
2022/12/04 09:32:39;;;;;;;17.27;10.77;;;;;;;;;;5074925;28;20347;-80
2022/12/04 09:35:07;;;;;;;15.87;10.73;;;;;;;;;;5073782;28;20232;-81
2022/12/04 09:37:35;;;;;;;15.50;10.63;;;;;;;;;;5074585;28;20205;-80
2022/12/04 09:40:02;;;;;;;20.33;11.73;;;;;;;;;;5073873;28;20235;-80
2022/12/04 09:42:35;;;;;;;25.47;12.10;;;;;;;;;;5074572;28;20217;-81
2022/12/04 09:45:08;;;;;;;17.73;10.80;;;;;;;;;;5068789;28;20237;-81
2022/12/04 09:47:38;;;;;;;17.87;10.87;;;;;;;;;;5055754;28;20263;-80
2022/12/04 09:50:06;;;;;;;18.73;11.63;;;;;;;;;;5065274;28;20257;-80
2022/12/04 09:52:40;;;;;;;20.33;11.13;;;;;;;;;;5054016;28;20689;-80
2022/12/04 09:55:13;;;;;;;16.83;9.63;;;;;;;;;;5053621;28;20246;-80
2022/12/04 09:57:42;;;;;;;18.33;11.23;;;;;;;;;;5059940;28;20198;-80
2022/12/04 10:00:13;;;;;;;20.27;10.50;;;;;;;;;;5059897;28;20255;-80
2022/12/04 10:02:43;;;;;;;21.50;11.63;;;;;;;;;;5054057;28;20238;-80
2022/12/04 10:05:17;;;;;;;19.93;11.43;;;;;;;;;;5053651;28;20237;-79
2022/12/04 10:07:47;;;;;;;19.47;11.50;;;;;;;;;;5053847;28;20217;-80
2022/12/04 10:10:19;;;;;;;18.10;12.03;;;;;;;;;;5053402;28;20596;-80
2022/12/04 10:12:50;;;;;;;17.30;10.70;;;;;;;;;;5053730;28;20221;-81
2022/12/04 10:15:23;;;;;;;20.63;10.60;;;;;;;;;;5053357;28;20233;-80
2022/12/04 10:18:01;;;;;;;21.30;11.67;;;;;;;;;;5053472;28;20233;-79
2022/12/04 10:20:37;;;;;;;19.87;11.00;;;;;;;;;;5053373;28;20238;-79
2022/12/04 10:23:08;;;;;;;18.33;11.07;;;;;;;;;;5053817;28;20197;-80
2022/12/04 10:25:37;;;;;;;17.30;11.23;;;;;;;;;;5052846;28;20233;-79
2022/12/04 10:28:11;;;;;;;17.67;10.67;;;;;;;;;;5052524;28;20700;-80
2022/12/04 10:30:38;;;;;;;18.90;10.13;;;;;;;;;;5052930;28;20239;-79
2022/12/04 10:33:14;;;;;;;22.93;12.30;;;;;;;;;;5052623;28;20213;-79
2022/12/04 10:35:43;;;;;;;17.87;11.43;;;;;;;;;;5052791;28;20229;-79
2022/12/04 10:38:13;;;;;;;16.83;10.70;;;;;;;;;;5052688;28;20674;-79
2022/12/04 10:40:43;;;;;;;20.57;12.00;;;;;;;;;;5053304;28;20234;-79
2022/12/04 10:43:14;;;;;;;17.03;10.70;;;;;;;;;;5073344;28;20218;-78
2022/12/04 10:45:41;;;;;;;20.93;11.43;;;;;;;;;;5069097;28;20238;-79
2022/12/04 10:48:12;;;;;;;18.30;11.10;;;;;;;;;;5053197;28;20206;-79
2022/12/04 10:50:40;;;;;;;17.07;11.10;;;;;;;;;;5052662;28;20240;-79
2022/12/04 10:53:07;;;;;;;19.13;11.30;;;;;;;;;;5053312;28;20668;-79
2022/12/04 10:55:37;;;;;;;19.43;11.10;;;;;;;;;;5052462;28;20237;-79
2022/12/04 10:58:04;;;;;;;18.07;11.73;;;;;;;;;;5052296;28;20229;-79
2022/12/04 11:00:32;;;;;;;17.43;10.87;;;;;;;;;;5059287;28;20243;-79
2022/12/04 11:03:01;;;;;;;18.80;11.67;;;;;;;;;;5056327;28;20331;-79
2022/12/04 11:05:32;;;;;;;18.47;11.33;;;;;;;;;;5065020;28;20602;-80
2022/12/04 11:08:00;;;;;;;17.97;11.07;;;;;;;;;;5047167;28;20212;-81
2022/12/04 11:10:31;;;;;;;19.23;11.27;;;;;;;;;;5052511;28;20240;-81
2022/12/04 11:13:00;;;;;;;18.83;10.77;;;;;;;;;;5049695;28;20213;-83
2022/12/04 11:15:28;;;;;;;18.33;10.90;;;;;;;;;;5047927;28;20262;-81
2022/12/04 11:17:55;;;;;;;22.70;11.23;;;;;;;;;;5052327;28;20671;-82
2022/12/04 11:20:24;;;;;;;22.97;12.07;;;;;;;;;;5052244;28;20260;-82
2022/12/04 11:22:55;;;;;;;19.00;11.80;;;;;;;;;;5052722;28;20201;-82
2022/12/04 11:25:23;;;;;;;18.37;11.33;;;;;;;;;;5051666;28;20233;-83
2022/12/04 11:27:52;;;;;;;18.97;11.73;;;;;;;;;;5052428;28;20209;-81
2022/12/04 11:30:21;;;;;;;15.10;9.90;;;;;;;;;;5052034;28;20706;-82
2022/12/04 11:32:48;;;;;;;21.87;12.27;;;;;;;;;;5052275;28;20217;-80
2022/12/04 11:35:17;;;;;;;23.23;12.13;;;;;;;;;;5051932;28;20234;-80
2022/12/04 11:37:52;;;;;;;19.67;11.30;;;;;;;;;;5052661;28;20208;-86
2022/12/04 11:40:20;;;;;;;15.67;9.83;;;;;;;;;;5052065;28;20730;-81
2022/12/04 11:42:58;;;;;;;18.50;10.73;;;;;;;;;;5051978;28;20680;-79
2022/12/04 11:45:25;;;;;;;17.60;10.67;;;;;;;;;;5050773;28;20707;-79
2022/12/04 11:47:54;;;;;;;18.17;10.47;;;;;;;;;;5051937;28;20218;-79
2022/12/04 11:50:26;;;;;;;21.13;11.50;;;;;;;;;;5051230;28;20233;-80
2022/12/04 11:53:02;;;;;;;16.00;9.73;;;;;;;;;;5052633;28;20207;-80
2022/12/04 11:55:35;;;;;;;20.53;10.20;;;;;;;;;;5050375;28;20639;-80
2022/12/04 11:58:08;;;;;;;15.47;9.33;;;;;;;;;;5051628;28;20209;-82
2022/12/04 12:00:37;;;;;;;17.63;10.80;;;;;;;;;;5051434;28;20725;-82
2022/12/04 12:03:10;;;;;;;21.17;11.00;;;;;;;;;;5051431;28;20212;-81
2022/12/04 12:05:53;;;;;;;21.63;14.25;;;;;;;;;;5045748;28;20522;-79
2022/12/04 12:08:27;;;;;;;20.47;11.97;;;;;;;;;;5066134;28;20209;-79
2022/12/04 12:11:00;;;;;;;17.27;10.97;;;;;;;;;;5056493;28;20256;-79
2022/12/04 12:13:34;;;;;;;17.90;11.00;;;;;;;;;;5051221;28;20209;-77
2022/12/04 12:19:13;;;;;;;18.13;10.53;;;;;;;;;;5047759;28;20204;-78
2022/12/04 12:21:44;;;;;;;19.33;11.57;;;;;;;;;;5051605;28;20285;-78
2022/12/04 12:24:18;;;;;;;17.73;11.13;;;;;;;;;;5051623;28;20220;-78
2022/12/04 12:26:49;;;;;;;20.17;10.97;;;;;;;;;;5050996;28;20236;-78
2022/12/04 12:29:22;;;;;;;15.07;10.93;;;;;;;;;;5051585;28;20538;-78
2022/12/04 12:31:55;;;;;;;17.97;10.10;;;;;;;;;;5050843;28;20244;-77
2022/12/04 12:34:27;;;;;;;19.80;11.43;;;;;;;;;;5048922;28;20209;-77
2022/12/04 12:36:55;;;;;;;18.40;10.87;;;;;;;;;;5052780;28;20228;-76
2022/12/04 12:39:24;;;;;;;18.27;11.20;;;;;;;;;;5056349;28;20695;-77
2022/12/04 12:41:53;;;;;;;18.30;10.80;;;;;;;;;;5050230;28;20309;-77
2022/12/04 12:44:22;;;;;;;15.10;9.90;;;;;;;;;;5046461;28;20210;-77
2022/12/04 12:46:51;;;;;;;16.73;10.80;;;;;;;;;;5059110;28;20362;-77
2022/12/04 12:49:21;;;;;;;14.33;9.53;;;;;;;;;;5050734;28;20202;-77
2022/12/04 12:51:51;;;;;;;17.33;10.47;;;;;;;;;;5050439;28;20245;-77
2022/12/04 12:54:24;;;;;;;14.60;9.40;;;;;;;;;;5050980;28;20209;-77
2022/12/04 12:56:56;;;;;;;17.10;10.70;;;;;;;;;;5051443;28;20238;-77
2022/12/04 12:59:24;;;;;;;15.50;10.37;;;;;;;;;;5054596;28;20580;-77
2022/12/04 13:01:54;;;;;;;16.60;9.97;;;;;;;;;;5054113;28;20723;-77
2022/12/04 13:04:25;;;;;;;18.63;10.57;;;;;;;;;;5054829;28;20287;-77
2022/12/04 13:06:54;;;;;;;15.50;10.13;;;;;;;;;;5053837;28;20234;-76
2022/12/04 13:09:24;;;;;;;16.90;10.50;;;;;;;;;;5054505;28;20543;-77
2022/12/04 13:11:54;;;;;;;17.70;10.83;;;;;;;;;;5053931;28;20287;-77
2022/12/04 13:14:21;;;;;;;16.30;10.53;;;;;;;;;;5054425;28;20211;-77
2022/12/04 13:16:51;;;;;;;13.03;9.37;;;;;;;;;;5053624;28;20573;-77
2022/12/04 13:19:20;;;;;;;17.67;10.97;;;;;;;;;;5054167;28;20209;-77
2022/12/04 13:21:50;;;;;;;19.00;10.10;;;;;;;;;;5053806;28;20235;-77
2022/12/04 13:24:32;;;;;;;17.77;10.67;;;;;;;;;;5054082;28;20743;-77
2022/12/04 13:27:04;;;;;;;19.67;10.40;;;;;;;;;;5044866;28;20686;-77
2022/12/04 13:29:39;;;;;;;15.83;10.17;;;;;;;;;;5054260;28;20670;-77
2022/12/04 13:32:12;;;;;;;14.70;9.40;;;;;;;;;;5053629;28;20990;-77
2022/12/04 13:34:44;;;;;;;15.17;10.07;;;;;;;;;;5053347;28;20217;-77
2022/12/04 13:37:35;;;;;;;12.87;9.63;;;;;;;;;;5053721;28;20584;-77
2022/12/04 13:40:29;;;;;;;19.00;10.33;;;;;;;;;;5038295;28;20598;-79
2022/12/04 13:43:26;;;;;;;17.80;10.93;;;;;;;;;;5053615;28;20215;-77
2022/12/04 13:45:56;;;;;;;16.97;11.10;;;;;;;;;;5010930;28;20246;-78
2022/12/04 13:48:30;;;;;;;17.27;10.27;;;;;;;;;;5044368;28;20212;-77
2022/12/04 13:51:02;;;;;;;15.03;9.53;;;;;;;;;;5053240;28;20245;-77
2022/12/04 13:53:30;;;;;;;15.10;10.10;;;;;;;;;;5053956;28;20200;-78
2022/12/04 13:55:57;;;;;;;17.17;10.33;;;;;;;;;;5053136;28;20587;-77
2022/12/04 13:58:27;;;;;;;17.40;10.60;;;;;;;;;;5053750;28;20223;-77
2022/12/04 14:01:02;;;;;;;17.60;10.97;;;;;;;;;;5052990;28;20306;-77
2022/12/04 14:03:31;;;;;;;23.80;10.87;;;;;;;;;;5053724;28;20208;-78
2022/12/04 14:06:04;;;;;;;17.80;10.93;;;;;;;;;;5053010;28;20264;-78
2022/12/04 14:08:35;;;;;;;18.57;10.63;;;;;;;;;;5052929;28;20215;-78
2022/12/04 14:11:03;;;;;;;16.63;11.10;;;;;;;;;;5052667;28;20237;-77
2022/12/04 14:13:37;;;;;;;15.77;11.03;;;;;;;;;;5053245;28;20214;-77
2022/12/04 14:16:08;;;;;;;17.33;10.57;;;;;;;;;;5051852;28;20628;-78
2022/12/04 14:18:35;;;;;;;16.20;10.27;;;;;;;;;;5053266;28;20240;-78
2022/12/04 14:21:03;;;;;;;16.47;10.60;;;;;;;;;;5064939;28;20232;-78
2022/12/04 14:23:35;;;;;;;17.37;10.30;;;;;;;;;;5073495;28;20215;-78
2022/12/04 14:26:04;;;;;;;16.67;11.07;;;;;;;;;;5072238;28;20286;-78
2022/12/04 14:28:41;;;;;;;15.50;10.73;;;;;;;;;;5072871;28;20276;-78
2022/12/04 14:31:18;;;;;;;14.90;10.17;;;;;;;;;;5048637;28;20226;-78
2022/12/04 14:33:47;;;;;;;17.40;10.30;;;;;;;;;;5049188;28;20216;-78
2022/12/04 14:36:17;;;;;;;19.33;11.10;;;;;;;;;;5066188;28;20242;-80
2022/12/04 14:38:45;;;;;;;19.63;10.27;;;;;;;;;;5053245;28;20198;-79
2022/12/04 14:41:12;;;;;;;19.40;11.23;;;;;;;;;;5051805;28;20232;-78
2022/12/04 14:43:40;;;;;;;20.73;11.97;;;;;;;;;;5053869;28;20213;-79
2022/12/04 14:46:09;;;;;;;16.67;10.93;;;;;;;;;;5071932;28;20241;-80
2022/12/04 14:48:42;;;;;;;18.67;11.53;;;;;;;;;;5064556;28;20642;-78
2022/12/04 14:51:13;;;;;;;17.57;11.27;;;;;;;;;;5064005;28;20228;-77